sensor_id;sensor_type;location;lat;lon;timestamp;P1;durP1;ratioP1;P2;durP2;ratioP2
64938;SDS011;51453;47.738;7.420;2023-07-02T00:02:25;4.05;;;3.65;;
64938;SDS011;51453;47.738;7.420;2023-07-02T00:04:51;4.32;;;3.92;;
64938;SDS011;51453;47.738;7.420;2023-07-02T00:07:16;5.18;;;3.85;;
64938;SDS011;51453;47.738;7.420;2023-07-02T00:09:42;5.57;;;3.75;;
64938;SDS011;51453;47.738;7.420;2023-07-02T00:12:08;5.38;;;3.70;;
64938;SDS011;51453;47.738;7.420;2023-07-02T00:14:34;4.25;;;3.90;;
64938;SDS011;51453;47.738;7.420;2023-07-02T00:16:59;5.32;;;3.83;;
64938;SDS011;51453;47.738;7.420;2023-07-02T00:19:25;4.07;;;3.67;;
64938;SDS011;51453;47.738;7.420;2023-07-02T00:21:51;6.55;;;4.43;;
64938;SDS011;51453;47.738;7.420;2023-07-02T00:24:18;5.43;;;3.80;;
64938;SDS011;51453;47.738;7.420;2023-07-02T00:26:44;5.28;;;4.30;;
64938;SDS011;51453;47.738;7.420;2023-07-02T00:29:09;8.57;;;4.57;;
64938;SDS011;51453;47.738;7.420;2023-07-02T00:31:36;4.90;;;3.85;;
64938;SDS011;51453;47.738;7.420;2023-07-02T00:34:02;6.70;;;4.28;;
64938;SDS011;51453;47.738;7.420;2023-07-02T00:36:28;4.72;;;3.80;;
64938;SDS011;51453;47.738;7.420;2023-07-02T00:38:54;6.05;;;4.10;;
64938;SDS011;51453;47.738;7.420;2023-07-02T00:41:20;7.68;;;4.07;;
64938;SDS011;51453;47.738;7.420;2023-07-02T00:43:45;5.13;;;4.60;;
64938;SDS011;51453;47.738;7.420;2023-07-02T00:46:13;7.53;;;4.45;;
64938;SDS011;51453;47.738;7.420;2023-07-02T00:48:54;6.18;;;4.63;;
64938;SDS011;51453;47.738;7.420;2023-07-02T00:51:21;4.53;;;4.13;;
64938;SDS011;51453;47.738;7.420;2023-07-02T00:53:52;5.18;;;4.50;;
64938;SDS011;51453;47.738;7.420;2023-07-02T00:56:20;8.15;;;4.43;;
64938;SDS011;51453;47.738;7.420;2023-07-02T00:58:47;5.43;;;4.45;;
64938;SDS011;51453;47.738;7.420;2023-07-02T01:01:22;6.28;;;4.35;;
64938;SDS011;51453;47.738;7.420;2023-07-02T01:06:25;12.00;;;4.80;;
64938;SDS011;51453;47.738;7.420;2023-07-02T01:09:01;5.93;;;4.40;;
64938;SDS011;51453;47.738;7.420;2023-07-02T01:11:30;4.72;;;4.20;;
64938;SDS011;51453;47.738;7.420;2023-07-02T01:14:01;9.02;;;4.38;;
64938;SDS011;51453;47.738;7.420;2023-07-02T01:16:30;5.95;;;4.40;;
64938;SDS011;51453;47.738;7.420;2023-07-02T01:18:58;10.85;;;5.07;;
64938;SDS011;51453;47.738;7.420;2023-07-02T01:21:29;5.50;;;4.40;;
64938;SDS011;51453;47.738;7.420;2023-07-02T01:23:57;7.97;;;4.95;;
64938;SDS011;51453;47.738;7.420;2023-07-02T01:26:27;6.82;;;4.35;;
64938;SDS011;51453;47.738;7.420;2023-07-02T01:28:54;8.00;;;4.53;;
64938;SDS011;51453;47.738;7.420;2023-07-02T01:31:19;9.93;;;5.00;;
64938;SDS011;51453;47.738;7.420;2023-07-02T01:33:49;7.18;;;5.22;;
64938;SDS011;51453;47.738;7.420;2023-07-02T01:36:16;6.13;;;4.60;;
64938;SDS011;51453;47.738;7.420;2023-07-02T01:38:41;8.75;;;5.30;;
64938;SDS011;51453;47.738;7.420;2023-07-02T01:41:07;9.18;;;5.05;;
64938;SDS011;51453;47.738;7.420;2023-07-02T01:43:33;5.90;;;4.57;;
64938;SDS011;51453;47.738;7.420;2023-07-02T01:45:58;7.60;;;5.18;;
64938;SDS011;51453;47.738;7.420;2023-07-02T01:48:26;7.80;;;4.78;;
64938;SDS011;51453;47.738;7.420;2023-07-02T01:50:52;7.22;;;4.82;;
64938;SDS011;51453;47.738;7.420;2023-07-02T01:53:18;7.53;;;5.00;;
64938;SDS011;51453;47.738;7.420;2023-07-02T01:55:43;7.20;;;4.35;;
64938;SDS011;51453;47.738;7.420;2023-07-02T01:58:09;6.72;;;4.93;;
64938;SDS011;51453;47.738;7.420;2023-07-02T02:00:34;9.05;;;4.95;;
64938;SDS011;51453;47.738;7.420;2023-07-02T02:03:01;8.55;;;4.65;;
64938;SDS011;51453;47.738;7.420;2023-07-02T02:05:26;7.18;;;4.70;;
64938;SDS011;51453;47.738;7.420;2023-07-02T02:07:52;6.95;;;4.70;;
64938;SDS011;51453;47.738;7.420;2023-07-02T02:10:17;11.07;;;5.13;;
64938;SDS011;51453;47.738;7.420;2023-07-02T02:12:43;12.25;;;5.07;;
64938;SDS011;51453;47.738;7.420;2023-07-02T02:15:09;10.35;;;5.00;;
64938;SDS011;51453;47.738;7.420;2023-07-02T02:17:35;7.22;;;4.70;;
64938;SDS011;51453;47.738;7.420;2023-07-02T02:20:01;9.55;;;5.13;;
64938;SDS011;51453;47.738;7.420;2023-07-02T02:22:30;7.30;;;4.68;;
64938;SDS011;51453;47.738;7.420;2023-07-02T02:24:56;10.40;;;5.18;;
64938;SDS011;51453;47.738;7.420;2023-07-02T02:27:22;10.13;;;5.00;;
64938;SDS011;51453;47.738;7.420;2023-07-02T02:29:47;7.78;;;4.60;;
64938;SDS011;51453;47.738;7.420;2023-07-02T02:32:13;9.13;;;5.25;;
64938;SDS011;51453;47.738;7.420;2023-07-02T02:34:39;6.82;;;5.03;;
64938;SDS011;51453;47.738;7.420;2023-07-02T02:37:05;10.60;;;5.15;;
64938;SDS011;51453;47.738;7.420;2023-07-02T02:39:30;6.55;;;4.82;;
64938;SDS011;51453;47.738;7.420;2023-07-02T02:41:56;6.65;;;5.00;;
64938;SDS011;51453;47.738;7.420;2023-07-02T02:44:22;6.63;;;4.85;;
64938;SDS011;51453;47.738;7.420;2023-07-02T02:46:47;6.93;;;4.95;;
64938;SDS011;51453;47.738;7.420;2023-07-02T02:49:13;10.32;;;5.50;;
64938;SDS011;51453;47.738;7.420;2023-07-02T02:51:38;7.47;;;5.70;;
64938;SDS011;51453;47.738;7.420;2023-07-02T02:54:05;11.52;;;6.22;;
64938;SDS011;51453;47.738;7.420;2023-07-02T02:56:31;13.45;;;6.85;;
64938;SDS011;51453;47.738;7.420;2023-07-02T02:58:56;12.88;;;6.80;;
64938;SDS011;51453;47.738;7.420;2023-07-02T03:01:22;14.02;;;7.90;;
64938;SDS011;51453;47.738;7.420;2023-07-02T03:03:48;9.57;;;7.32;;
64938;SDS011;51453;47.738;7.420;2023-07-02T03:06:13;13.10;;;7.38;;
64938;SDS011;51453;47.738;7.420;2023-07-02T03:08:40;16.38;;;8.13;;
64938;SDS011;51453;47.738;7.420;2023-07-02T03:11:06;15.43;;;8.23;;
64938;SDS011;51453;47.738;7.420;2023-07-02T03:13:31;13.68;;;8.07;;
64938;SDS011;51453;47.738;7.420;2023-07-02T03:15:57;21.13;;;8.30;;
64938;SDS011;51453;47.738;7.420;2023-07-02T03:18:22;13.50;;;7.82;;
64938;SDS011;51453;47.738;7.420;2023-07-02T03:20:48;13.68;;;7.72;;
64938;SDS011;51453;47.738;7.420;2023-07-02T03:23:14;15.23;;;9.02;;
64938;SDS011;51453;47.738;7.420;2023-07-02T03:25:39;19.55;;;9.02;;
64938;SDS011;51453;47.738;7.420;2023-07-02T03:28:05;20.15;;;9.65;;
64938;SDS011;51453;47.738;7.420;2023-07-02T03:30:30;15.93;;;9.48;;
64938;SDS011;51453;47.738;7.420;2023-07-02T03:32:57;19.35;;;10.23;;
64938;SDS011;51453;47.738;7.420;2023-07-02T03:35:22;18.52;;;10.13;;
64938;SDS011;51453;47.738;7.420;2023-07-02T03:37:48;22.42;;;10.88;;
64938;SDS011;51453;47.738;7.420;2023-07-02T03:40:14;20.45;;;11.10;;
64938;SDS011;51453;47.738;7.420;2023-07-02T03:42:39;22.58;;;12.15;;
64938;SDS011;51453;47.738;7.420;2023-07-02T03:45:05;22.70;;;12.77;;
64938;SDS011;51453;47.738;7.420;2023-07-02T03:47:31;23.92;;;13.10;;
64938;SDS011;51453;47.738;7.420;2023-07-02T03:49:56;25.95;;;14.88;;
64938;SDS011;51453;47.738;7.420;2023-07-02T03:52:22;26.60;;;14.07;;
64938;SDS011;51453;47.738;7.420;2023-07-02T03:54:48;29.92;;;14.95;;
64938;SDS011;51453;47.738;7.420;2023-07-02T03:57:13;26.92;;;15.25;;
64938;SDS011;51453;47.738;7.420;2023-07-02T03:59:39;30.38;;;15.90;;
64938;SDS011;51453;47.738;7.420;2023-07-02T04:02:04;35.67;;;16.42;;
64938;SDS011;51453;47.738;7.420;2023-07-02T04:04:30;37.75;;;17.65;;
64938;SDS011;51453;47.738;7.420;2023-07-02T04:06:56;34.50;;;17.05;;
64938;SDS011;51453;47.738;7.420;2023-07-02T04:09:21;32.75;;;17.15;;
64938;SDS011;51453;47.738;7.420;2023-07-02T04:11:47;33.47;;;16.95;;
64938;SDS011;51453;47.738;7.420;2023-07-02T04:14:13;30.85;;;17.02;;
64938;SDS011;51453;47.738;7.420;2023-07-02T04:16:38;31.52;;;17.02;;
64938;SDS011;51453;47.738;7.420;2023-07-02T04:19:04;27.35;;;16.83;;
64938;SDS011;51453;47.738;7.420;2023-07-02T04:21:29;32.15;;;17.00;;
64938;SDS011;51453;47.738;7.420;2023-07-02T04:23:55;32.25;;;17.75;;
64938;SDS011;51453;47.738;7.420;2023-07-02T04:26:21;33.30;;;17.00;;
64938;SDS011;51453;47.738;7.420;2023-07-02T04:28:46;25.35;;;16.17;;
64938;SDS011;51453;47.738;7.420;2023-07-02T04:31:12;29.27;;;17.13;;
64938;SDS011;51453;47.738;7.420;2023-07-02T04:33:37;32.60;;;16.75;;
64938;SDS011;51453;47.738;7.420;2023-07-02T04:36:04;31.45;;;17.50;;
64938;SDS011;51453;47.738;7.420;2023-07-02T04:38:30;31.67;;;16.77;;
64938;SDS011;51453;47.738;7.420;2023-07-02T04:40:56;29.02;;;17.50;;
64938;SDS011;51453;47.738;7.420;2023-07-02T04:43:30;28.52;;;16.77;;
64938;SDS011;51453;47.738;7.420;2023-07-02T04:45:56;30.90;;;16.73;;
64938;SDS011;51453;47.738;7.420;2023-07-02T04:48:22;29.52;;;16.25;;
64938;SDS011;51453;47.738;7.420;2023-07-02T04:50:48;31.17;;;16.38;;
64938;SDS011;51453;47.738;7.420;2023-07-02T04:53:14;32.10;;;17.92;;
64938;SDS011;51453;47.738;7.420;2023-07-02T04:55:40;33.63;;;16.83;;
64938;SDS011;51453;47.738;7.420;2023-07-02T04:58:06;32.22;;;16.90;;
64938;SDS011;51453;47.738;7.420;2023-07-02T05:00:31;34.25;;;17.10;;
64938;SDS011;51453;47.738;7.420;2023-07-02T05:02:57;29.95;;;15.88;;
64938;SDS011;51453;47.738;7.420;2023-07-02T05:05:23;31.38;;;16.58;;
64938;SDS011;51453;47.738;7.420;2023-07-02T05:07:48;29.83;;;16.98;;
64938;SDS011;51453;47.738;7.420;2023-07-02T05:10:14;29.65;;;16.30;;
64938;SDS011;51453;47.738;7.420;2023-07-02T05:12:40;25.88;;;16.15;;
64938;SDS011;51453;47.738;7.420;2023-07-02T05:15:05;29.38;;;16.33;;
64938;SDS011;51453;47.738;7.420;2023-07-02T05:17:31;29.70;;;16.30;;
64938;SDS011;51453;47.738;7.420;2023-07-02T05:19:59;31.20;;;16.10;;
64938;SDS011;51453;47.738;7.420;2023-07-02T05:22:26;31.45;;;16.65;;
64938;SDS011;51453;47.738;7.420;2023-07-02T05:24:51;28.33;;;16.02;;
64938;SDS011;51453;47.738;7.420;2023-07-02T05:27:17;35.80;;;16.50;;
64938;SDS011;51453;47.738;7.420;2023-07-02T05:29:43;25.63;;;15.75;;
64938;SDS011;51453;47.738;7.420;2023-07-02T05:32:09;27.92;;;16.40;;
64938;SDS011;51453;47.738;7.420;2023-07-02T05:34:34;28.77;;;15.73;;
64938;SDS011;51453;47.738;7.420;2023-07-02T05:37:00;30.58;;;16.40;;
64938;SDS011;51453;47.738;7.420;2023-07-02T05:39:25;29.42;;;15.73;;
64938;SDS011;51453;47.738;7.420;2023-07-02T05:41:51;32.95;;;17.10;;
64938;SDS011;51453;47.738;7.420;2023-07-02T05:44:17;30.77;;;16.73;;
64938;SDS011;51453;47.738;7.420;2023-07-02T05:46:42;33.75;;;17.88;;
64938;SDS011;51453;47.738;7.420;2023-07-02T05:49:08;36.35;;;16.88;;
64938;SDS011;51453;47.738;7.420;2023-07-02T05:51:34;29.35;;;17.10;;
64938;SDS011;51453;47.738;7.420;2023-07-02T05:53:59;32.75;;;17.33;;
64938;SDS011;51453;47.738;7.420;2023-07-02T05:56:25;33.33;;;17.58;;
64938;SDS011;51453;47.738;7.420;2023-07-02T05:58:51;34.25;;;17.80;;
64938;SDS011;51453;47.738;7.420;2023-07-02T06:01:16;31.75;;;17.73;;
64938;SDS011;51453;47.738;7.420;2023-07-02T06:03:42;33.28;;;17.60;;
64938;SDS011;51453;47.738;7.420;2023-07-02T06:06:10;33.25;;;17.83;;
64938;SDS011;51453;47.738;7.420;2023-07-02T06:08:36;38.50;;;18.70;;
64938;SDS011;51453;47.738;7.420;2023-07-02T06:11:02;32.45;;;18.08;;
64938;SDS011;51453;47.738;7.420;2023-07-02T06:13:27;35.13;;;18.80;;
64938;SDS011;51453;47.738;7.420;2023-07-02T06:15:53;37.75;;;19.90;;
64938;SDS011;51453;47.738;7.420;2023-07-02T06:18:19;38.30;;;19.65;;
64938;SDS011;51453;47.738;7.420;2023-07-02T06:20:45;38.67;;;19.75;;
64938;SDS011;51453;47.738;7.420;2023-07-02T06:23:11;34.22;;;18.92;;
64938;SDS011;51453;47.738;7.420;2023-07-02T06:25:36;35.28;;;19.05;;
64938;SDS011;51453;47.738;7.420;2023-07-02T06:28:02;34.50;;;19.80;;
64938;SDS011;51453;47.738;7.420;2023-07-02T06:30:28;33.55;;;20.00;;
64938;SDS011;51453;47.738;7.420;2023-07-02T06:32:54;37.70;;;19.90;;
64938;SDS011;51453;47.738;7.420;2023-07-02T06:35:20;35.40;;;19.88;;
64938;SDS011;51453;47.738;7.420;2023-07-02T06:37:46;37.28;;;20.13;;
64938;SDS011;51453;47.738;7.420;2023-07-02T06:40:12;35.28;;;19.95;;
64938;SDS011;51453;47.738;7.420;2023-07-02T06:42:37;36.60;;;20.63;;
64938;SDS011;51453;47.738;7.420;2023-07-02T06:45:04;36.28;;;20.48;;
64938;SDS011;51453;47.738;7.420;2023-07-02T06:47:30;37.95;;;19.85;;
64938;SDS011;51453;47.738;7.420;2023-07-02T06:49:56;33.80;;;19.90;;
64938;SDS011;51453;47.738;7.420;2023-07-02T06:52:21;33.42;;;20.02;;
64938;SDS011;51453;47.738;7.420;2023-07-02T06:54:47;36.45;;;20.20;;
64938;SDS011;51453;47.738;7.420;2023-07-02T06:57:13;38.88;;;21.15;;
64938;SDS011;51453;47.738;7.420;2023-07-02T06:59:38;39.97;;;21.27;;
64938;SDS011;51453;47.738;7.420;2023-07-02T07:02:04;33.33;;;19.92;;
64938;SDS011;51453;47.738;7.420;2023-07-02T07:04:31;35.50;;;19.85;;
64938;SDS011;51453;47.738;7.420;2023-07-02T07:06:56;32.45;;;19.88;;
64938;SDS011;51453;47.738;7.420;2023-07-02T07:09:22;38.60;;;20.73;;
64938;SDS011;51453;47.738;7.420;2023-07-02T07:11:47;36.83;;;21.55;;
64938;SDS011;51453;47.738;7.420;2023-07-02T07:14:13;37.47;;;20.85;;
64938;SDS011;51453;47.738;7.420;2023-07-02T07:16:39;35.72;;;20.92;;
64938;SDS011;51453;47.738;7.420;2023-07-02T07:19:04;33.20;;;20.67;;
64938;SDS011;51453;47.738;7.420;2023-07-02T07:21:31;32.63;;;20.02;;
64938;SDS011;51453;47.738;7.420;2023-07-02T07:23:56;35.65;;;20.58;;
64938;SDS011;51453;47.738;7.420;2023-07-02T07:26:22;42.90;;;21.25;;
64938;SDS011;51453;47.738;7.420;2023-07-02T07:28:48;34.40;;;20.85;;
64938;SDS011;51453;47.738;7.420;2023-07-02T07:31:14;35.58;;;20.23;;
64938;SDS011;51453;47.738;7.420;2023-07-02T07:33:40;34.50;;;20.52;;
64938;SDS011;51453;47.738;7.420;2023-07-02T07:36:06;37.20;;;20.35;;
64938;SDS011;51453;47.738;7.420;2023-07-02T07:38:31;36.85;;;20.67;;
64938;SDS011;51453;47.738;7.420;2023-07-02T07:40:57;39.58;;;20.92;;
64938;SDS011;51453;47.738;7.420;2023-07-02T07:43:23;40.95;;;21.88;;
64938;SDS011;51453;47.738;7.420;2023-07-02T07:45:48;37.72;;;20.50;;
64938;SDS011;51453;47.738;7.420;2023-07-02T07:48:14;41.13;;;21.40;;
64938;SDS011;51453;47.738;7.420;2023-07-02T07:50:40;38.55;;;21.98;;
64938;SDS011;51453;47.738;7.420;2023-07-02T07:53:05;40.60;;;21.58;;
64938;SDS011;51453;47.738;7.420;2023-07-02T07:55:31;35.35;;;20.92;;
64938;SDS011;51453;47.738;7.420;2023-07-02T07:57:57;36.17;;;20.90;;
64938;SDS011;51453;47.738;7.420;2023-07-02T08:00:22;39.75;;;22.50;;
64938;SDS011;51453;47.738;7.420;2023-07-02T08:02:49;37.67;;;21.42;;
64938;SDS011;51453;47.738;7.420;2023-07-02T08:05:17;40.42;;;21.92;;
64938;SDS011;51453;47.738;7.420;2023-07-02T08:07:43;39.17;;;21.63;;
64938;SDS011;51453;47.738;7.420;2023-07-02T08:10:08;38.53;;;21.85;;
64938;SDS011;51453;47.738;7.420;2023-07-02T08:12:35;36.40;;;21.40;;
64938;SDS011;51453;47.738;7.420;2023-07-02T08:15:00;40.60;;;23.05;;
64938;SDS011;51453;47.738;7.420;2023-07-02T08:17:26;38.75;;;22.13;;
64938;SDS011;51453;47.738;7.420;2023-07-02T08:19:52;38.53;;;21.85;;
64938;SDS011;51453;47.738;7.420;2023-07-02T08:22:17;39.20;;;21.38;;
64938;SDS011;51453;47.738;7.420;2023-07-02T08:24:43;41.63;;;21.50;;
64938;SDS011;51453;47.738;7.420;2023-07-02T08:27:09;38.53;;;21.92;;
64938;SDS011;51453;47.738;7.420;2023-07-02T08:29:35;36.47;;;21.15;;
64938;SDS011;51453;47.738;7.420;2023-07-02T08:32:01;38.58;;;21.83;;
64938;SDS011;51453;47.738;7.420;2023-07-02T08:34:27;39.45;;;21.65;;
64938;SDS011;51453;47.738;7.420;2023-07-02T08:36:52;35.33;;;21.42;;
64938;SDS011;51453;47.738;7.420;2023-07-02T08:39:18;37.30;;;22.23;;
64938;SDS011;51453;47.738;7.420;2023-07-02T08:41:47;40.95;;;21.27;;
64938;SDS011;51453;47.738;7.420;2023-07-02T08:44:13;38.55;;;21.80;;
64938;SDS011;51453;47.738;7.420;2023-07-02T08:46:43;39.83;;;22.42;;
64938;SDS011;51453;47.738;7.420;2023-07-02T08:49:09;38.00;;;21.27;;
64938;SDS011;51453;47.738;7.420;2023-07-02T08:51:35;41.05;;;21.75;;
64938;SDS011;51453;47.738;7.420;2023-07-02T08:54:02;34.33;;;21.55;;
64938;SDS011;51453;47.738;7.420;2023-07-02T08:56:28;40.05;;;22.10;;
64938;SDS011;51453;47.738;7.420;2023-07-02T08:58:54;37.30;;;21.92;;
64938;SDS011;51453;47.738;7.420;2023-07-02T09:01:20;41.95;;;22.55;;
64938;SDS011;51453;47.738;7.420;2023-07-02T09:03:46;42.45;;;22.42;;
64938;SDS011;51453;47.738;7.420;2023-07-02T09:06:11;41.03;;;22.25;;
64938;SDS011;51453;47.738;7.420;2023-07-02T09:08:38;39.72;;;22.75;;
64938;SDS011;51453;47.738;7.420;2023-07-02T09:11:13;40.78;;;22.95;;
64938;SDS011;51453;47.738;7.420;2023-07-02T09:16:20;39.75;;;22.38;;
64938;SDS011;51453;47.738;7.420;2023-07-02T09:18:54;38.67;;;22.35;;
64938;SDS011;51453;47.738;7.420;2023-07-02T09:21:28;38.92;;;21.17;;
64938;SDS011;51453;47.738;7.420;2023-07-02T09:24:11;35.60;;;20.67;;
64938;SDS011;51453;47.738;7.420;2023-07-02T09:29:17;37.35;;;20.45;;
64938;SDS011;51453;47.738;7.420;2023-07-02T09:31:48;35.00;;;20.33;;
64938;SDS011;51453;47.738;7.420;2023-07-02T09:34:14;42.03;;;20.80;;
64938;SDS011;51453;47.738;7.420;2023-07-02T09:36:40;32.67;;;19.13;;
64938;SDS011;51453;47.738;7.420;2023-07-02T09:39:51;35.78;;;20.45;;
64938;SDS011;51453;47.738;7.420;2023-07-02T09:41:54;35.35;;;20.17;;
64938;SDS011;51453;47.738;7.420;2023-07-02T09:44:22;33.15;;;18.98;;
64938;SDS011;51453;47.738;7.420;2023-07-02T09:47:02;37.50;;;18.70;;
64938;SDS011;51453;47.738;7.420;2023-07-02T09:49:35;31.30;;;18.05;;
64938;SDS011;51453;47.738;7.420;2023-07-02T09:52:03;32.50;;;19.98;;
64938;SDS011;51453;47.738;7.420;2023-07-02T09:54:33;36.05;;;19.50;;
64938;SDS011;51453;47.738;7.420;2023-07-02T09:57:00;31.50;;;19.42;;
64938;SDS011;51453;47.738;7.420;2023-07-02T09:59:26;31.40;;;18.50;;
64938;SDS011;51453;47.738;7.420;2023-07-02T10:01:52;29.02;;;18.13;;
64938;SDS011;51453;47.738;7.420;2023-07-02T10:04:18;31.95;;;20.08;;
64938;SDS011;51453;47.738;7.420;2023-07-02T10:06:49;34.25;;;19.15;;
64938;SDS011;51453;47.738;7.420;2023-07-02T10:09:16;37.33;;;21.35;;
64938;SDS011;51453;47.738;7.420;2023-07-02T10:11:43;33.15;;;19.23;;
64938;SDS011;51453;47.738;7.420;2023-07-02T10:14:09;31.05;;;19.30;;
64938;SDS011;51453;47.738;7.420;2023-07-02T10:16:47;31.85;;;18.83;;
64938;SDS011;51453;47.738;7.420;2023-07-02T10:19:14;28.38;;;17.80;;
64938;SDS011;51453;47.738;7.420;2023-07-02T10:21:40;35.38;;;21.23;;
64938;SDS011;51453;47.738;7.420;2023-07-02T10:24:12;36.97;;;20.83;;
64938;SDS011;51453;47.738;7.420;2023-07-02T10:26:51;67.35;;;37.85;;
64938;SDS011;51453;47.738;7.420;2023-07-02T10:29:18;33.33;;;19.88;;
64938;SDS011;51453;47.738;7.420;2023-07-02T10:31:48;29.05;;;17.75;;
64938;SDS011;51453;47.738;7.420;2023-07-02T10:34:14;32.92;;;18.35;;
64938;SDS011;51453;47.738;7.420;2023-07-02T10:36:40;27.42;;;16.27;;
64938;SDS011;51453;47.738;7.420;2023-07-02T10:39:06;28.45;;;17.73;;
64938;SDS011;51453;47.738;7.420;2023-07-02T10:41:33;29.75;;;16.92;;
64938;SDS011;51453;47.738;7.420;2023-07-02T10:44:06;31.75;;;18.58;;
64938;SDS011;51453;47.738;7.420;2023-07-02T10:46:33;30.35;;;17.13;;
64938;SDS011;51453;47.738;7.420;2023-07-02T10:48:59;27.02;;;17.20;;
64938;SDS011;51453;47.738;7.420;2023-07-02T10:51:25;29.15;;;16.65;;
64938;SDS011;51453;47.738;7.420;2023-07-02T10:54:00;29.33;;;17.15;;
64938;SDS011;51453;47.738;7.420;2023-07-02T10:56:27;29.15;;;16.42;;
64938;SDS011;51453;47.738;7.420;2023-07-02T10:58:53;28.60;;;17.33;;
64938;SDS011;51453;47.738;7.420;2023-07-02T11:01:26;30.17;;;16.80;;
64938;SDS011;51453;47.738;7.420;2023-07-02T11:03:59;29.08;;;17.15;;
64938;SDS011;51453;47.738;7.420;2023-07-02T11:08:56;27.90;;;16.23;;
64938;SDS011;51453;47.738;7.420;2023-07-02T11:11:22;29.35;;;16.73;;
64938;SDS011;51453;47.738;7.420;2023-07-02T11:13:49;26.38;;;16.15;;
64938;SDS011;51453;47.738;7.420;2023-07-02T11:18:44;30.35;;;17.25;;
64938;SDS011;51453;47.738;7.420;2023-07-02T11:21:10;25.73;;;17.00;;
64938;SDS011;51453;47.738;7.420;2023-07-02T11:23:36;27.90;;;17.40;;
64938;SDS011;51453;47.738;7.420;2023-07-02T11:26:01;28.00;;;16.98;;
64938;SDS011;51453;47.738;7.420;2023-07-02T11:28:28;30.92;;;16.98;;
64938;SDS011;51453;47.738;7.420;2023-07-02T11:30:56;31.35;;;16.80;;
64938;SDS011;51453;47.738;7.420;2023-07-02T11:33:35;26.67;;;16.27;;
64938;SDS011;51453;47.738;7.420;2023-07-02T11:36:02;28.60;;;17.70;;
64938;SDS011;51453;47.738;7.420;2023-07-02T11:38:28;29.80;;;17.70;;
64938;SDS011;51453;47.738;7.420;2023-07-02T11:40:54;30.02;;;17.67;;
64938;SDS011;51453;47.738;7.420;2023-07-02T11:43:19;26.70;;;16.20;;
64938;SDS011;51453;47.738;7.420;2023-07-02T11:45:45;27.33;;;17.30;;
64938;SDS011;51453;47.738;7.420;2023-07-02T11:48:11;32.75;;;18.08;;
64938;SDS011;51453;47.738;7.420;2023-07-02T11:50:38;27.70;;;17.55;;
64938;SDS011;51453;47.738;7.420;2023-07-02T11:53:03;27.08;;;17.10;;
64938;SDS011;51453;47.738;7.420;2023-07-02T11:55:29;29.08;;;17.42;;
64938;SDS011;51453;47.738;7.420;2023-07-02T11:57:54;27.83;;;17.17;;
64938;SDS011;51453;47.738;7.420;2023-07-02T12:00:20;28.98;;;17.35;;
64938;SDS011;51453;47.738;7.420;2023-07-02T12:02:46;26.52;;;16.55;;
64938;SDS011;51453;47.738;7.420;2023-07-02T12:05:11;28.45;;;17.33;;
64938;SDS011;51453;47.738;7.420;2023-07-02T12:07:37;30.80;;;16.92;;
64938;SDS011;51453;47.738;7.420;2023-07-02T12:10:03;25.50;;;16.65;;
64938;SDS011;51453;47.738;7.420;2023-07-02T12:12:29;22.65;;;15.93;;
64938;SDS011;51453;47.738;7.420;2023-07-02T12:14:54;27.08;;;16.67;;
64938;SDS011;51453;47.738;7.420;2023-07-02T12:17:20;25.77;;;16.52;;
64938;SDS011;51453;47.738;7.420;2023-07-02T12:19:46;25.15;;;16.17;;
64938;SDS011;51453;47.738;7.420;2023-07-02T12:22:11;24.80;;;16.17;;
64938;SDS011;51453;47.738;7.420;2023-07-02T12:24:38;26.98;;;16.30;;
64938;SDS011;51453;47.738;7.420;2023-07-02T12:27:04;29.63;;;17.48;;
64938;SDS011;51453;47.738;7.420;2023-07-02T12:29:30;25.20;;;15.57;;
64938;SDS011;51453;47.738;7.420;2023-07-02T12:31:56;28.95;;;16.08;;
64938;SDS011;51453;47.738;7.420;2023-07-02T12:34:21;26.50;;;16.35;;
64938;SDS011;51453;47.738;7.420;2023-07-02T12:36:47;25.40;;;16.17;;
64938;SDS011;51453;47.738;7.420;2023-07-02T12:39:12;23.80;;;15.02;;
64938;SDS011;51453;47.738;7.420;2023-07-02T12:41:38;25.40;;;16.95;;
64938;SDS011;51453;47.738;7.420;2023-07-02T12:44:04;25.23;;;15.77;;
64938;SDS011;51453;47.738;7.420;2023-07-02T12:46:29;26.40;;;16.02;;
64938;SDS011;51453;47.738;7.420;2023-07-02T12:48:55;26.60;;;16.88;;
64938;SDS011;51453;47.738;7.420;2023-07-02T12:51:20;30.55;;;16.63;;
64938;SDS011;51453;47.738;7.420;2023-07-02T12:53:46;25.23;;;15.82;;
64938;SDS011;51453;47.738;7.420;2023-07-02T12:56:11;26.77;;;15.93;;
64938;SDS011;51453;47.738;7.420;2023-07-02T12:58:37;27.80;;;16.85;;
64938;SDS011;51453;47.738;7.420;2023-07-02T13:01:03;23.10;;;15.55;;
64938;SDS011;51453;47.738;7.420;2023-07-02T13:03:29;25.52;;;16.42;;
64938;SDS011;51453;47.738;7.420;2023-07-02T13:05:55;25.05;;;16.42;;
64938;SDS011;51453;47.738;7.420;2023-07-02T13:08:21;25.60;;;16.42;;
64938;SDS011;51453;47.738;7.420;2023-07-02T13:10:46;27.35;;;16.83;;
64938;SDS011;51453;47.738;7.420;2023-07-02T13:13:12;25.15;;;15.95;;
64938;SDS011;51453;47.738;7.420;2023-07-02T13:15:37;26.42;;;17.00;;
64938;SDS011;51453;47.738;7.420;2023-07-02T13:18:03;31.00;;;17.27;;
64938;SDS011;51453;47.738;7.420;2023-07-02T13:20:29;25.90;;;16.63;;
64938;SDS011;51453;47.738;7.420;2023-07-02T13:22:55;27.58;;;16.05;;
64938;SDS011;51453;47.738;7.420;2023-07-02T13:25:20;27.33;;;16.63;;
64938;SDS011;51453;47.738;7.420;2023-07-02T13:27:46;25.70;;;16.10;;
64938;SDS011;51453;47.738;7.420;2023-07-02T13:30:12;26.17;;;16.38;;
64938;SDS011;51453;47.738;7.420;2023-07-02T13:32:37;26.67;;;16.83;;
64938;SDS011;51453;47.738;7.420;2023-07-02T13:35:03;27.40;;;16.20;;
64938;SDS011;51453;47.738;7.420;2023-07-02T13:37:29;25.63;;;16.83;;
64938;SDS011;51453;47.738;7.420;2023-07-02T13:39:55;25.45;;;15.73;;
64938;SDS011;51453;47.738;7.420;2023-07-02T13:42:20;25.17;;;16.02;;
64938;SDS011;51453;47.738;7.420;2023-07-02T13:44:46;26.42;;;16.13;;
64938;SDS011;51453;47.738;7.420;2023-07-02T13:47:11;24.02;;;16.33;;
64938;SDS011;51453;47.738;7.420;2023-07-02T13:49:37;26.35;;;16.17;;
64938;SDS011;51453;47.738;7.420;2023-07-02T13:52:03;28.67;;;16.42;;
64938;SDS011;51453;47.738;7.420;2023-07-02T13:54:29;28.92;;;16.92;;
64938;SDS011;51453;47.738;7.420;2023-07-02T13:56:55;25.20;;;16.60;;
64938;SDS011;51453;47.738;7.420;2023-07-02T13:59:21;22.70;;;16.40;;
64938;SDS011;51453;47.738;7.420;2023-07-02T14:01:47;28.50;;;16.25;;
64938;SDS011;51453;47.738;7.420;2023-07-02T14:04:13;24.58;;;16.98;;
64938;SDS011;51453;47.738;7.420;2023-07-02T14:06:40;22.42;;;16.05;;
64938;SDS011;51453;47.738;7.420;2023-07-02T14:09:05;24.35;;;15.52;;
64938;SDS011;51453;47.738;7.420;2023-07-02T14:11:31;23.08;;;16.38;;
64938;SDS011;51453;47.738;7.420;2023-07-02T14:14:00;24.70;;;15.95;;
64938;SDS011;51453;47.738;7.420;2023-07-02T14:16:26;24.58;;;15.70;;
64938;SDS011;51453;47.738;7.420;2023-07-02T14:18:52;24.20;;;16.38;;
64938;SDS011;51453;47.738;7.420;2023-07-02T14:21:17;25.52;;;16.55;;
64938;SDS011;51453;47.738;7.420;2023-07-02T14:23:43;23.90;;;15.80;;
64938;SDS011;51453;47.738;7.420;2023-07-02T14:26:09;25.67;;;15.90;;
64938;SDS011;51453;47.738;7.420;2023-07-02T14:28:35;24.02;;;15.63;;
64938;SDS011;51453;47.738;7.420;2023-07-02T14:31:01;24.60;;;15.98;;
64938;SDS011;51453;47.738;7.420;2023-07-02T14:33:30;26.13;;;15.77;;
64938;SDS011;51453;47.738;7.420;2023-07-02T14:35:58;24.08;;;14.55;;